Time;durP1;ratioP1;P1;durP2;ratioP2;P2;SDS_P1;SDS_P2;PMS_P1;PMS_P2;Temp;Humidity;BMP_temperature;BMP_pressure;BME280_temperature;BME280_humidity;BME280_pressure;Samples;Min_cycle;Max_cycle;Signal;HPM_P1;HPM_P2
2021/08/07 00:00:25;;;;;;;4.68;1.75;;;21.40;68.50;;;;;;5096447;28;20055;-72
2021/08/07 00:02:51;;;;;;;5.20;1.95;;;21.40;68.50;;;;;;5095882;28;20378;-72
2021/08/07 00:05:17;;;;;;;4.65;1.75;;;21.40;68.50;;;;;;5096022;28;20036;-73
2021/08/07 00:07:42;;;;;;;3.22;1.30;;;21.40;68.50;;;;;;5096050;28;20400;-72
2021/08/07 00:10:09;;;;;;;3.78;1.65;;;21.40;68.50;;;;;;5096045;28;20044;-72
2021/08/07 00:12:36;;;;;;;4.25;1.75;;;21.40;68.50;;;;;;5095857;28;20063;-72
2021/08/07 00:15:03;;;;;;;3.72;1.40;;;21.40;68.50;;;;;;5096366;28;20040;-72
2021/08/07 00:17:29;;;;;;;4.18;1.92;;;21.40;68.50;;;;;;5096463;28;20078;-72
2021/08/07 00:19:54;;;;;;;4.15;1.38;;;21.40;68.50;;;;;;5096075;28;20075;-72
2021/08/07 00:22:20;;;;;;;6.40;1.60;;;21.40;68.50;;;;;;5095696;28;20082;-72
2021/08/07 00:24:47;;;;;;;4.32;1.70;;;21.40;68.50;;;;;;5095778;28;20072;-72
2021/08/07 00:27:13;;;;;;;4.18;1.50;;;21.40;68.50;;;;;;5095354;28;20074;-72
2021/08/07 00:29:39;;;;;;;4.97;1.83;;;21.40;68.50;;;;;;5095746;28;20068;-72
2021/08/07 00:32:05;;;;;;;6.18;2.10;;;21.40;68.50;;;;;;5095830;28;20060;-72
2021/08/07 00:34:31;;;;;;;4.75;1.40;;;21.40;68.60;;;;;;5096339;28;20043;-72
2021/08/07 00:36:57;;;;;;;4.15;1.30;;;21.40;68.50;;;;;;5095565;28;20062;-72
2021/08/07 00:39:22;;;;;;;4.75;1.35;;;21.40;68.50;;;;;;5095397;28;20047;-72
2021/08/07 00:41:48;;;;;;;4.30;1.75;;;21.40;68.60;;;;;;5095322;28;20043;-72
2021/08/07 00:44:14;;;;;;;3.50;1.33;;;21.40;68.50;;;;;;5095428;28;20040;-72
2021/08/07 00:46:40;;;;;;;4.20;1.27;;;21.40;68.50;;;;;;5095472;28;20031;-72
2021/08/07 00:49:06;;;;;;;3.88;1.48;;;21.40;68.50;;;;;;5095429;28;20048;-72
2021/08/07 00:51:32;;;;;;;3.08;1.50;;;21.40;68.50;;;;;;5095364;28;20111;-72
2021/08/07 00:53:59;;;;;;;3.85;1.30;;;21.40;68.50;;;;;;5095512;28;20078;-72
2021/08/07 00:56:25;;;;;;;3.42;1.30;;;21.40;68.50;;;;;;5095218;28;20406;-72
2021/08/07 00:58:51;;;;;;;6.07;1.50;;;21.40;68.50;;;;;;5095780;28;20063;-72
2021/08/07 01:01:17;;;;;;;3.25;1.13;;;21.30;68.50;;;;;;5095350;28;20044;-72
2021/08/07 01:03:49;;;;;;;3.95;1.30;;;21.30;68.40;;;;;;5095367;28;20048;-72
2021/08/07 01:06:33;;;;;;;5.30;1.67;;;21.40;68.50;;;;;;5095331;28;20044;-72
2021/08/07 01:09:35;;;;;;;3.28;1.17;;;21.40;68.60;;;;;;5094776;28;20052;-72
2021/08/07 01:12:07;;;;;;;4.80;1.20;;;21.40;68.50;;;;;;5095162;28;20032;-72
2021/08/07 01:14:42;;;;;;;4.20;1.42;;;21.40;68.50;;;;;;5095065;28;20048;-72
2021/08/07 01:17:19;;;;;;;4.07;1.40;;;21.40;68.40;;;;;;5095054;28;20063;-72
2021/08/07 01:20:02;;;;;;;3.42;1.20;;;21.40;68.50;;;;;;5095959;28;20048;-72
2021/08/07 01:22:40;;;;;;;;;;;21.40;68.50;;;;;;5095520;28;20068;-72
2021/08/07 01:25:10;;;;;;;2.83;1.20;;;21.30;68.50;;;;;;5095219;28;19916;-72
2021/08/07 01:27:38;;;;;;;3.47;1.27;;;21.40;68.60;;;;;;5094745;28;20059;-72
2021/08/07 01:30:08;;;;;;;4.03;1.35;;;21.30;68.60;;;;;;5094913;28;20054;-72
2021/08/07 01:32:36;;;;;;;3.70;1.02;;;21.30;68.50;;;;;;5095093;28;20044;-72
2021/08/07 01:35:04;;;;;;;5.03;1.27;;;21.30;68.60;;;;;;5094663;28;20474;-72
2021/08/07 01:37:30;;;;;;;2.85;0.95;;;21.30;68.50;;;;;;5094938;28;20504;-72
2021/08/07 01:39:57;;;;;;;4.25;1.45;;;21.30;68.60;;;;;;5094595;28;20062;-72
2021/08/07 01:42:24;;;;;;;3.92;1.00;;;21.30;68.60;;;;;;5094591;28;20040;-72
2021/08/07 01:44:50;;;;;;;5.97;1.38;;;21.30;68.50;;;;;;5094774;28;20105;-72
2021/08/07 01:47:31;;;;;;;3.33;1.17;;;21.30;68.50;;;;;;5094573;28;20036;-72
2021/08/07 01:50:05;;;;;;;4.25;1.05;;;21.30;68.50;;;;;;5094903;28;20071;-73
2021/08/07 01:52:36;;;;;;;4.00;1.52;;;21.30;68.50;;;;;;5094393;28;20482;-72
2021/08/07 01:55:10;;;;;;;3.67;1.15;;;21.30;68.50;;;;;;5094831;28;20071;-72
2021/08/07 01:57:42;;;;;;;2.72;1.02;;;21.30;68.50;;;;;;5094775;28;20043;-72
2021/08/07 02:00:12;;;;;;;3.75;1.38;;;21.30;68.50;;;;;;5094521;28;20438;-72
2021/08/07 02:02:40;;;;;;;5.20;1.33;;;21.30;68.50;;;;;;5094671;28;20126;-72
2021/08/07 02:05:08;;;;;;;3.72;1.00;;;21.30;68.50;;;;;;5094504;28;20039;-72
2021/08/07 02:07:34;;;;;;;3.65;1.27;;;21.30;68.50;;;;;;5095000;28;20047;-72
2021/08/07 02:10:02;;;;;;;5.20;1.35;;;21.30;68.50;;;;;;5094951;28;20145;-72
2021/08/07 02:12:27;;;;;;;3.35;1.50;;;21.30;68.50;;;;;;5094962;28;20383;-72
2021/08/07 02:14:55;;;;;;;2.47;0.95;;;21.30;68.50;;;;;;5094985;28;20131;-72
2021/08/07 02:17:21;;;;;;;3.42;1.20;;;21.30;68.50;;;;;;5094376;28;20040;-72
2021/08/07 02:19:48;;;;;;;3.03;1.08;;;21.30;68.50;;;;;;5095818;28;20036;-72
2021/08/07 02:22:16;;;;;;;3.10;0.93;;;21.30;68.50;;;;;;5098213;28;20028;-72
2021/08/07 02:24:43;;;;;;;3.10;1.20;;;21.30;68.50;;;;;;5098557;28;20043;-72
2021/08/07 02:27:08;;;;;;;2.47;0.98;;;21.30;68.50;;;;;;5098505;28;20048;-72
2021/08/07 02:29:35;;;;;;;2.63;0.95;;;21.30;68.50;;;;;;5097820;28;20081;-72
2021/08/07 02:32:02;;;;;;;3.78;1.23;;;21.30;68.50;;;;;;5098041;28;20415;-72
2021/08/07 02:34:29;;;;;;;1.95;0.88;;;21.30;68.50;;;;;;5098483;28;20085;-73
2021/08/07 02:36:56;;;;;;;4.30;1.63;;;21.30;68.40;;;;;;5097941;28;20055;-72
2021/08/07 02:39:23;;;;;;;2.58;0.90;;;21.30;68.50;;;;;;5097743;28;20458;-72
2021/08/07 02:41:49;;;;;;;3.60;1.02;;;21.30;68.50;;;;;;5097737;28;20071;-72
2021/08/07 02:44:16;;;;;;;4.00;0.98;;;21.30;68.40;;;;;;5098159;28;20048;-72
2021/08/07 02:46:42;;;;;;;4.32;0.95;;;21.30;68.50;;;;;;5097867;28;20131;-72
2021/08/07 02:49:09;;;;;;;2.65;1.00;;;21.30;68.50;;;;;;5098205;28;20036;-72
2021/08/07 02:51:36;;;;;;;2.90;0.95;;;21.30;68.50;;;;;;5098210;28;20085;-72
2021/08/07 02:54:02;;;;;;;2.83;0.93;;;21.20;68.40;;;;;;5097499;28;20123;-72
2021/08/07 02:56:28;;;;;;;2.60;0.80;;;21.20;68.50;;;;;;5097699;28;20105;-72
2021/08/07 02:58:54;;;;;;;2.08;1.10;;;21.30;68.50;;;;;;5097610;28;20040;-72
2021/08/07 03:01:19;;;;;;;2.70;0.98;;;21.20;68.40;;;;;;5097734;28;20055;-72
2021/08/07 03:03:45;;;;;;;3.15;0.88;;;21.20;68.40;;;;;;5097152;28;20127;-72
2021/08/07 03:06:11;;;;;;;2.50;1.02;;;21.30;68.50;;;;;;5097198;28;20048;-72
2021/08/07 03:08:37;;;;;;;3.20;1.00;;;21.20;68.40;;;;;;5097903;28;20113;-72
2021/08/07 03:11:03;;;;;;;2.47;1.10;;;21.20;68.50;;;;;;5079559;28;20394;-72
2021/08/07 03:13:29;;;;;;;2.88;0.90;;;21.20;68.40;;;;;;5097180;28;20100;-72
2021/08/07 03:15:55;;;;;;;2.45;1.00;;;21.20;68.50;;;;;;5097257;28;20064;-72
2021/08/07 03:18:22;;;;;;;2.88;1.10;;;21.20;68.50;;;;;;5096855;28;20044;-72
2021/08/07 03:20:47;;;;;;;2.30;1.00;;;21.20;68.50;;;;;;5097175;28;20050;-72
2021/08/07 03:23:13;;;;;;;2.83;0.80;;;21.20;68.50;;;;;;5097095;28;20518;-72
2021/08/07 03:25:39;;;;;;;3.53;1.10;;;21.20;68.50;;;;;;5096980;28;20055;-72
2021/08/07 03:28:08;;;;;;;2.22;0.70;;;21.20;68.50;;;;;;5096793;28;20047;-72
2021/08/07 03:30:34;;;;;;;3.22;1.23;;;21.20;68.50;;;;;;5096185;28;20092;-72
2021/08/07 03:33:00;;;;;;;3.30;1.05;;;21.20;68.60;;;;;;5096612;28;20468;-72
2021/08/07 03:35:25;;;;;;;4.63;1.20;;;21.20;68.50;;;;;;5097377;28;20363;-72
2021/08/07 03:37:51;;;;;;;2.78;0.93;;;21.20;68.60;;;;;;5097076;28;20101;-72
2021/08/07 03:40:17;;;;;;;3.28;1.02;;;21.20;68.50;;;;;;5097129;28;20067;-72
2021/08/07 03:42:43;;;;;;;3.60;1.20;;;21.20;68.50;;;;;;5096317;28;20043;-72
2021/08/07 03:45:10;;;;;;;4.03;1.25;;;21.20;68.60;;;;;;5097134;28;20055;-72
2021/08/07 03:47:52;;;;;;;4.20;0.90;;;21.20;68.50;;;;;;5096510;28;20118;-72
2021/08/07 03:50:20;;;;;;;3.53;1.00;;;21.20;68.50;;;;;;5096622;28;20072;-72
2021/08/07 03:52:46;;;;;;;2.30;0.85;;;21.10;68.50;;;;;;5096175;28;20044;-72
2021/08/07 03:55:13;;;;;;;3.00;0.90;;;21.20;68.50;;;;;;5096315;28;20040;-72
2021/08/07 03:57:50;;;;;;;2.25;1.15;;;21.20;68.60;;;;;;5096456;28;20082;-72
2021/08/07 04:00:17;;;;;;;1.70;0.55;;;21.20;68.50;;;;;;5095927;28;20051;-72
2021/08/07 04:02:43;;;;;;;2.72;0.80;;;21.10;68.60;;;;;;5097191;28;20320;-72
2021/08/07 04:05:09;;;;;;;3.22;0.80;;;21.10;68.60;;;;;;5096078;28;20046;-72
2021/08/07 04:07:35;;;;;;;3.25;1.38;;;21.10;68.50;;;;;;5095869;28;20387;-72
2021/08/07 04:10:00;;;;;;;4.70;1.15;;;21.10;68.50;;;;;;5096097;28;20039;-72
2021/08/07 04:12:26;;;;;;;2.55;0.90;;;21.10;68.50;;;;;;5096182;28;20052;-72
2021/08/07 04:14:52;;;;;;;4.13;1.33;;;21.10;68.50;;;;;;5095747;28;20046;-72
2021/08/07 04:17:18;;;;;;;2.38;0.90;;;21.10;68.50;;;;;;5096245;28;20428;-72
2021/08/07 04:19:43;;;;;;;3.65;0.88;;;21.10;68.50;;;;;;5095611;28;20409;-72
2021/08/07 04:22:09;;;;;;;3.45;1.00;;;21.10;68.50;;;;;;5095950;28;20047;-72
2021/08/07 04:24:35;;;;;;;3.40;1.00;;;21.10;68.50;;;;;;5096392;28;20036;-72
2021/08/07 04:27:01;;;;;;;1.98;1.00;;;21.10;68.50;;;;;;5095906;28;20118;-72
2021/08/07 04:29:26;;;;;;;3.25;1.10;;;21.10;68.50;;;;;;5095484;28;20088;-72
2021/08/07 04:31:52;;;;;;;3.03;0.95;;;21.10;68.50;;;;;;5095656;28;20404;-72
2021/08/07 04:34:18;;;;;;;4.78;1.17;;;21.10;68.50;;;;;;5095709;28;20047;-72
2021/08/07 04:36:44;;;;;;;3.67;1.08;;;21.10;68.50;;;;;;5095903;28;20043;-72
2021/08/07 04:39:10;;;;;;;3.78;0.98;;;21.10;68.50;;;;;;5095394;28;20043;-72
2021/08/07 04:41:38;;;;;;;3.53;0.98;;;21.10;68.50;;;;;;5095402;28;20054;-72
2021/08/07 04:44:05;;;;;;;2.80;1.00;;;21.10;68.50;;;;;;5095177;28;20040;-72
2021/08/07 04:46:30;;;;;;;2.17;0.75;;;21.10;68.50;;;;;;5095776;28;20105;-72
2021/08/07 04:48:56;;;;;;;4.40;1.20;;;21.10;68.60;;;;;;5095244;28;20450;-72
2021/08/07 04:51:22;;;;;;;2.58;1.15;;;21.10;68.60;;;;;;5095551;28;20043;-72
2021/08/07 04:53:48;;;;;;;3.30;1.10;;;21.10;68.60;;;;;;5095699;28;20036;-72
2021/08/07 04:56:14;;;;;;;2.00;0.82;;;21.00;68.50;;;;;;5095391;28;20387;-72
2021/08/07 04:58:40;;;;;;;2.90;0.75;;;21.10;68.60;;;;;;5095199;28;20090;-72
2021/08/07 05:01:05;;;;;;;3.35;1.17;;;21.10;68.60;;;;;;5095127;28;20055;-72
2021/08/07 05:03:31;;;;;;;3.45;0.80;;;21.10;68.60;;;;;;5095179;28;20071;-72
2021/08/07 05:05:57;;;;;;;2.03;0.88;;;21.00;68.50;;;;;;5095360;28;20109;-72
2021/08/07 05:08:23;;;;;;;4.20;1.00;;;21.00;68.50;;;;;;5095098;28;20103;-72
2021/08/07 05:10:49;;;;;;;2.35;0.90;;;21.10;68.60;;;;;;5095281;28;20048;-72
2021/08/07 05:13:14;;;;;;;2.97;1.02;;;21.10;68.60;;;;;;5095622;28;20044;-72
2021/08/07 05:15:40;;;;;;;2.42;0.82;;;21.10;68.60;;;;;;5095723;28;20347;-72
2021/08/07 05:18:06;;;;;;;3.15;1.00;;;21.00;68.50;;;;;;5094952;28;20055;-72
2021/08/07 05:20:32;;;;;;;4.43;0.90;;;21.10;68.50;;;;;;5095274;28;20043;-72
2021/08/07 05:22:58;;;;;;;2.83;1.00;;;21.10;68.50;;;;;;5095018;28;20039;-72
2021/08/07 05:25:24;;;;;;;3.58;1.02;;;21.00;68.50;;;;;;5095070;28;20093;-72
2021/08/07 05:27:50;;;;;;;3.42;1.13;;;21.00;68.50;;;;;;5094955;28;20113;-72
2021/08/07 05:30:16;;;;;;;2.47;0.73;;;21.00;68.50;;;;;;5095198;28;20036;-72
2021/08/07 05:32:41;;;;;;;2.35;1.20;;;21.10;68.50;;;;;;5094814;28;20521;-72
2021/08/07 05:35:07;;;;;;;2.13;0.88;;;21.00;68.50;;;;;;5094960;28;20063;-72
2021/08/07 05:37:40;;;;;;;3.03;1.10;;;21.10;68.60;;;;;;5095488;28;20071;-72
2021/08/07 05:40:11;;;;;;;1.98;1.10;;;21.00;68.50;;;;;;5094889;28;20067;-73
2021/08/07 05:42:37;;;;;;;3.65;1.08;;;21.00;68.50;;;;;;5095401;28;20138;-72
2021/08/07 05:45:03;;;;;;;2.90;0.90;;;21.00;68.50;;;;;;5095385;28;20115;-72
2021/08/07 05:47:29;;;;;;;2.85;0.88;;;21.00;68.50;;;;;;5095317;28;20443;-72
2021/08/07 05:49:55;;;;;;;3.72;1.05;;;21.00;68.50;;;;;;5094831;28;20047;-72
2021/08/07 05:52:21;;;;;;;2.88;0.82;;;21.00;68.60;;;;;;5095252;28;20047;-72
2021/08/07 05:54:47;;;;;;;2.88;1.08;;;21.00;68.60;;;;;;5097400;28;20448;-72
2021/08/07 05:57:13;;;;;;;2.67;0.93;;;21.00;68.60;;;;;;5099280;28;20055;-72
2021/08/07 05:59:39;;;;;;;2.10;0.75;;;21.00;68.60;;;;;;5098417;28;20375;-72
2021/08/07 06:02:05;;;;;;;2.85;0.98;;;21.00;68.50;;;;;;5098537;28;20105;-72
2021/08/07 06:04:31;;;;;;;4.20;1.00;;;21.00;68.50;;;;;;5099094;28;20040;-72
2021/08/07 06:06:57;;;;;;;2.17;0.82;;;21.00;68.50;;;;;;5098475;28;20058;-72
2021/08/07 06:09:24;;;;;;;2.42;0.90;;;21.00;68.50;;;;;;5098342;28;20047;-73
2021/08/07 06:11:49;;;;;;;3.42;0.88;;;21.00;68.50;;;;;;5098338;28;20047;-72
2021/08/07 06:14:15;;;;;;;3.03;0.90;;;21.10;69.20;;;;;;5098530;28;20073;-72
2021/08/07 06:16:41;;;;;;;2.85;0.90;;;21.10;68.50;;;;;;5098335;28;20044;-72
2021/08/07 06:19:07;;;;;;;3.10;0.90;;;21.10;68.50;;;;;;5098570;28;20075;-72
2021/08/07 06:21:32;;;;;;;3.38;1.00;;;21.10;68.50;;;;;;5098148;28;20346;-72
2021/08/07 06:23:58;;;;;;;2.63;1.00;;;21.10;68.50;;;;;;5098129;28;20047;-72
2021/08/07 06:26:25;;;;;;;1.73;0.80;;;21.10;68.40;;;;;;5098361;28;20040;-72
2021/08/07 06:28:52;;;;;;;2.30;0.95;;;21.10;68.40;;;;;;5098629;28;20044;-72
2021/08/07 06:31:18;;;;;;;3.88;1.00;;;21.10;68.40;;;;;;5098550;28;20048;-72
2021/08/07 06:33:43;;;;;;;3.65;0.95;;;21.10;68.40;;;;;;5098667;28;20053;-71
2021/08/07 06:36:09;;;;;;;5.45;1.08;;;21.10;68.40;;;;;;5098165;28;20132;-72
2021/08/07 06:38:36;;;;;;;2.42;1.00;;;21.10;68.40;;;;;;5080050;28;20035;-72
2021/08/07 06:41:02;;;;;;;4.10;1.00;;;21.10;68.40;;;;;;5097780;28;20050;-72
2021/08/07 06:43:28;;;;;;;3.00;1.05;;;21.10;68.40;;;;;;5097454;28;20417;-72
2021/08/07 06:45:54;;;;;;;2.75;1.10;;;21.10;68.50;;;;;;5097894;28;20028;-72
2021/08/07 06:48:20;;;;;;;2.50;0.80;;;21.10;68.50;;;;;;5097618;28;20423;-72
2021/08/07 06:50:46;;;;;;;2.58;1.02;;;21.10;68.50;;;;;;5097800;28;20040;-72
2021/08/07 06:53:12;;;;;;;4.05;1.33;;;21.10;68.50;;;;;;5097538;28;20042;-72
2021/08/07 06:55:37;;;;;;;2.75;1.08;;;21.10;68.60;;;;;;5097524;28;20112;-72
2021/08/07 06:58:04;;;;;;;1.88;0.90;;;21.20;68.60;;;;;;5097557;28;20109;-72
2021/08/07 07:00:30;;;;;;;2.53;0.90;;;21.20;68.60;;;;;;5097224;28;20431;-72
2021/08/07 07:02:55;;;;;;;3.13;0.88;;;21.20;68.60;;;;;;5097337;28;20044;-72
2021/08/07 07:05:21;;;;;;;2.92;0.90;;;21.20;68.60;;;;;;5096630;28;20036;-72
2021/08/07 07:07:47;;;;;;;2.65;1.23;;;21.20;68.70;;;;;;5097142;28;20040;-72
2021/08/07 07:10:14;;;;;;;2.50;1.08;;;21.20;68.70;;;;;;5097281;28;20036;-72
2021/08/07 07:12:40;;;;;;;1.95;1.15;;;21.20;68.70;;;;;;5097177;28;20067;-72
2021/08/07 07:15:07;;;;;;;3.45;1.13;;;21.20;68.70;;;;;;5097028;28;20043;-72
2021/08/07 07:17:33;;;;;;;1.63;0.70;;;21.20;68.70;;;;;;5097703;28;20047;-72
2021/08/07 07:20:00;;;;;;;2.53;1.08;;;21.20;68.70;;;;;;5096681;28;20139;-72
2021/08/07 07:22:27;;;;;;;3.85;1.00;;;21.20;68.60;;;;;;5097533;28;20130;-72
2021/08/07 07:24:53;;;;;;;2.90;1.00;;;21.20;68.60;;;;;;5097025;28;20047;-72
2021/08/07 07:27:19;;;;;;;2.25;0.82;;;21.20;68.60;;;;;;5097696;28;20511;-72
2021/08/07 07:29:45;;;;;;;2.40;0.80;;;21.20;68.60;;;;;;5096722;28;20377;-72
2021/08/07 07:32:11;;;;;;;2.53;0.82;;;21.20;68.50;;;;;;5097087;28;20036;-72
2021/08/07 07:34:37;;;;;;;2.88;0.95;;;21.30;68.70;;;;;;5097258;28;20040;-72
2021/08/07 07:37:03;;;;;;;2.75;0.60;;;21.20;68.60;;;;;;5096697;28;20040;-72
2021/08/07 07:39:29;;;;;;;2.72;1.02;;;21.30;68.70;;;;;;5096459;28;20324;-72
2021/08/07 07:41:55;;;;;;;2.63;0.90;;;21.30;68.70;;;;;;5096436;28;20043;-72
2021/08/07 07:44:21;;;;;;;2.70;1.00;;;21.30;68.70;;;;;;5096497;28;20036;-72
2021/08/07 07:46:47;;;;;;;2.35;0.80;;;21.30;68.70;;;;;;5096472;28;20040;-72
2021/08/07 07:49:13;;;;;;;2.05;0.80;;;21.30;68.60;;;;;;5096495;28;20059;-72
2021/08/07 07:51:39;;;;;;;4.75;1.38;;;21.30;68.60;;;;;;5096435;28;20055;-72
2021/08/07 07:54:05;;;;;;;3.72;1.10;;;21.30;68.60;;;;;;5096784;28;20040;-71
2021/08/07 07:56:31;;;;;;;2.20;0.88;;;21.30;68.50;;;;;;5096425;28;20036;-71
2021/08/07 07:58:57;;;;;;;3.53;1.08;;;21.30;68.60;;;;;;5096908;28;20071;-72
2021/08/07 08:01:23;;;;;;;2.50;1.10;;;21.40;68.60;;;;;;5096524;28;20091;-72
2021/08/07 08:03:49;;;;;;;3.20;1.00;;;21.40;68.60;;;;;;5096785;28;20101;-72
2021/08/07 08:06:14;;;;;;;3.65;1.08;;;21.40;68.60;;;;;;5096050;28;20063;-72
2021/08/07 08:08:40;;;;;;;3.15;1.13;;;21.40;68.60;;;;;;5096196;28;20106;-72
2021/08/07 08:11:06;;;;;;;4.47;1.10;;;21.40;68.60;;;;;;5096083;28;20489;-72
2021/08/07 08:13:32;;;;;;;3.35;1.10;;;21.40;68.60;;;;;;5096617;28;20036;-72
2021/08/07 08:15:58;;;;;;;3.50;0.90;;;21.40;68.50;;;;;;5096051;28;20451;-72
2021/08/07 08:18:24;;;;;;;2.45;0.82;;;21.40;68.40;;;;;;5096523;28;20047;-72
2021/08/07 08:20:51;;;;;;;2.65;1.02;;;21.40;68.50;;;;;;5095659;28;20411;-72
2021/08/07 08:23:17;;;;;;;2.30;0.73;;;21.40;68.40;;;;;;5096063;28;20036;-72
2021/08/07 08:25:42;;;;;;;3.17;1.13;;;21.40;68.40;;;;;;5095869;28;20119;-72
2021/08/07 08:28:08;;;;;;;3.92;1.00;;;21.50;68.40;;;;;;5095988;28;20051;-72
2021/08/07 08:30:35;;;;;;;2.45;0.85;;;21.50;68.40;;;;;;5096145;28;20137;-72
2021/08/07 08:33:01;;;;;;;2.80;1.00;;;21.40;68.40;;;;;;5095580;28;20047;-72
2021/08/07 08:35:26;;;;;;;3.72;0.93;;;21.40;68.40;;;;;;5095358;28;20040;-72
2021/08/07 08:37:52;;;;;;;2.05;0.73;;;21.50;68.50;;;;;;5096184;28;20343;-72
2021/08/07 08:40:18;;;;;;;3.03;1.15;;;21.50;68.40;;;;;;5095727;28;20044;-72
2021/08/07 08:42:45;;;;;;;2.15;0.70;;;21.50;68.40;;;;;;5095544;28;20043;-72
2021/08/07 08:45:11;;;;;;;3.67;1.20;;;21.50;68.40;;;;;;5095343;28;20043;-72
2021/08/07 08:47:39;;;;;;;3.72;1.45;;;21.50;68.40;;;;;;5095487;28;20039;-72
2021/08/07 08:50:06;;;;;;;2.58;0.80;;;21.50;68.30;;;;;;5095473;28;20046;-72
2021/08/07 08:52:36;;;;;;;2.17;0.80;;;21.50;68.40;;;;;;5095456;28;20355;-72
2021/08/07 08:55:03;;;;;;;2.42;0.88;;;21.50;68.30;;;;;;5095935;28;20055;-72
2021/08/07 08:57:29;;;;;;;2.20;0.70;;;21.50;68.30;;;;;;5095136;28;20044;-72
2021/08/07 08:59:56;;;;;;;2.42;0.80;;;21.60;68.40;;;;;;5095130;28;20312;-72
2021/08/07 09:02:23;;;;;;;2.60;0.80;;;21.60;68.40;;;;;;5095111;28;20060;-72
2021/08/07 09:04:49;;;;;;;2.67;0.90;;;21.60;68.40;;;;;;5094933;28;20048;-72
2021/08/07 09:07:16;;;;;;;2.30;1.08;;;21.60;68.40;;;;;;5095001;28;20054;-72
2021/08/07 09:09:46;;;;;;;3.03;1.10;;;21.60;68.40;;;;;;5095659;28;20040;-72
2021/08/07 09:12:12;;;;;;;2.92;0.90;;;21.60;68.30;;;;;;5095414;28;20059;-72
2021/08/07 09:14:41;;;;;;;1.90;0.73;;;21.60;68.30;;;;;;5095174;28;20044;-72
2021/08/07 09:17:13;;;;;;;3.05;0.95;;;21.60;68.30;;;;;;5095049;28;20043;-72
2021/08/07 09:19:39;;;;;;;3.10;1.65;;;21.60;68.30;;;;;;5095597;28;20068;-72
2021/08/07 09:22:08;;;;;;;3.03;0.90;;;21.60;68.30;;;;;;5094934;28;20078;-72
2021/08/07 09:24:52;;;;;;;2.78;0.90;;;21.60;68.20;;;;;;5095319;28;20051;-72
2021/08/07 09:27:26;;;;;;;;;;;21.60;68.20;;;;;;5095451;28;20052;-72
2021/08/07 09:29:52;;;;;;;3.88;1.23;;;21.60;68.10;;;;;;5098422;28;19954;-72
2021/08/07 09:32:18;;;;;;;1.48;0.90;;;21.60;68.30;;;;;;5099099;28;20071;-72
2021/08/07 09:34:43;;;;;;;3.40;1.20;;;21.60;68.20;;;;;;5099143;28;20044;-72
2021/08/07 09:37:18;;;;;;;2.40;0.90;;;21.60;68.20;;;;;;5099142;28;20048;-72
2021/08/07 09:39:49;;;;;;;3.25;1.15;;;21.70;68.20;;;;;;5098886;28;20132;-72
2021/08/07 09:42:14;;;;;;;4.38;1.08;;;21.60;68.20;;;;;;5098852;28;20048;-72
2021/08/07 09:44:40;;;;;;;1.90;0.82;;;21.60;68.20;;;;;;5098892;28;20046;-72
2021/08/07 09:47:11;;;;;;;2.85;0.93;;;21.70;68.20;;;;;;5098604;28;20043;-72
2021/08/07 09:49:42;;;;;;;2.25;1.00;;;21.70;68.20;;;;;;5099110;28;20040;-72
2021/08/07 09:52:10;;;;;;;2.65;0.93;;;21.60;68.10;;;;;;5099352;28;20036;-72
2021/08/07 09:54:40;;;;;;;2.38;0.90;;;21.70;68.20;;;;;;5098734;28;20047;-72
2021/08/07 09:57:10;;;;;;;3.63;1.00;;;21.70;68.10;;;;;;5098603;28;20465;-72
2021/08/07 09:59:47;;;;;;;2.70;1.02;;;21.70;68.10;;;;;;5098730;28;20047;-72
2021/08/07 10:02:31;;;;;;;3.33;0.90;;;21.70;67.90;;;;;;5099009;28;20421;-72
2021/08/07 10:04:58;;;;;;;2.55;0.85;;;21.70;67.90;;;;;;5098540;28;20043;-72
2021/08/07 10:07:26;;;;;;;2.42;0.80;;;21.70;68.00;;;;;;5098200;28;20387;-72
2021/08/07 10:09:52;;;;;;;3.08;0.85;;;21.70;68.00;;;;;;5098251;28;20327;-72
2021/08/07 10:12:18;;;;;;;2.70;0.90;;;21.70;67.90;;;;;;5098284;28;20343;-72
2021/08/07 10:14:45;;;;;;;2.15;0.95;;;21.70;67.80;;;;;;5098642;28;20111;-72
2021/08/07 10:17:14;;;;;;;2.22;1.08;;;21.70;67.80;;;;;;5098622;28;20074;-73
2021/08/07 10:19:41;;;;;;;3.45;0.95;;;21.70;67.80;;;;;;5098424;28;20032;-73
2021/08/07 10:22:09;;;;;;;2.67;0.93;;;21.70;67.80;;;;;;5097889;28;20090;-72
2021/08/07 10:24:37;;;;;;;1.95;0.90;;;21.70;67.80;;;;;;5098550;28;20498;-72
2021/08/07 10:27:04;;;;;;;3.75;1.33;;;21.70;67.80;;;;;;5098155;28;20072;-72
2021/08/07 10:29:44;;;;;;;1.98;1.00;;;21.70;67.70;;;;;;5098222;28;20051;-72
2021/08/07 10:32:14;;;;;;;3.90;0.82;;;21.80;67.70;;;;;;5097955;28;20071;-73
2021/08/07 10:34:45;;;;;;;3.30;0.80;;;21.70;67.60;;;;;;5098248;28;20560;-72
2021/08/07 10:37:12;;;;;;;2.38;0.90;;;21.80;67.60;;;;;;5097945;28;20066;-72
2021/08/07 10:39:37;;;;;;;2.17;1.05;;;21.70;67.60;;;;;;5097040;28;20403;-72
2021/08/07 10:42:05;;;;;;;1.17;0.75;;;21.70;67.50;;;;;;5097657;28;20105;-72
2021/08/07 10:44:32;;;;;;;2.63;0.75;;;21.80;67.60;;;;;;5097743;28;20047;-72
2021/08/07 10:46:59;;;;;;;2.42;0.88;;;21.80;67.50;;;;;;5097488;28;20046;-72
2021/08/07 10:49:42;;;;;;;1.48;0.65;;;21.70;67.40;;;;;;5098156;28;20044;-72
2021/08/07 10:52:23;;;;;;;2.53;0.93;;;21.80;67.30;;;;;;5098092;28;20050;-72
2021/08/07 10:54:50;;;;;;;3.50;1.23;;;21.80;67.30;;;;;;5097775;28;20174;-72
2021/08/07 10:57:36;;;;;;;3.45;0.80;;;21.80;67.40;;;;;;5097668;28;20077;-73
2021/08/07 11:00:24;;;;;;;2.95;0.88;;;21.80;67.20;;;;;;5097375;28;20386;-72
2021/08/07 11:03:12;;;;;;;3.35;0.77;;;21.80;67.10;;;;;;5097641;28;20075;-72
2021/08/07 11:05:51;;;;;;;1.77;0.60;;;21.80;67.10;;;;;;5097345;28;20466;-72
2021/08/07 11:08:18;;;;;;;2.20;0.90;;;21.80;67.10;;;;;;5097379;28;20040;-72
2021/08/07 11:10:44;;;;;;;4.03;1.25;;;21.80;67.20;;;;;;5097479;28;20039;-72
2021/08/07 11:13:31;;;;;;;1.92;0.77;;;21.80;67.20;;;;;;5097524;28;20097;-72
2021/08/07 11:16:20;;;;;;;2.92;0.90;;;21.80;67.00;;;;;;5097233;28;20040;-72
2021/08/07 11:18:47;;;;;;;3.60;0.80;;;21.80;67.00;;;;;;5097902;28;20076;-72
2021/08/07 11:21:53;;;;;;;1.75;0.68;;;21.80;67.10;;;;;;5096947;28;20073;-72
2021/08/07 11:24:57;;;;;;;1.55;0.60;;;21.80;67.00;;;;;;5096987;28;20115;-72
2021/08/07 11:27:46;;;;;;;3.20;0.93;;;21.80;67.00;;;;;;5045712;28;20060;-72
2021/08/07 11:30:20;;;;;;;1.50;0.30;;;21.80;67.00;;;;;;5081839;28;20366;-72
2021/08/07 11:33:00;;;;;;;3.65;0.93;;;21.80;67.10;;;;;;5097253;28;20439;-73
2021/08/07 11:35:32;;;;;;;2.80;0.60;;;21.80;66.90;;;;;;5097125;28;20160;-72
2021/08/07 11:38:08;;;;;;;2.03;0.60;;;21.80;67.00;;;;;;5096942;28;20040;-72
2021/08/07 11:41:00;;;;;;;1.05;0.50;;;21.80;66.90;;;;;;5097223;28;20487;-72
2021/08/07 11:43:32;;;;;;;1.98;0.70;;;21.80;66.90;;;;;;5096709;28;20075;-72
2021/08/07 11:45:59;;;;;;;1.92;0.52;;;21.80;67.00;;;;;;5097042;28;20043;-72
2021/08/07 11:48:33;;;;;;;1.60;0.55;;;21.90;67.00;;;;;;5096625;28;20040;-72
2021/08/07 11:51:07;;;;;;;2.40;0.77;;;21.80;67.00;;;;;;5096826;28;20116;-72
2021/08/07 11:53:37;;;;;;;2.30;0.65;;;21.90;67.10;;;;;;5096491;28;20079;-73
2021/08/07 11:56:14;;;;;;;2.55;0.95;;;21.90;67.10;;;;;;5096532;28;20040;-72
2021/08/07 11:58:51;;;;;;;2.40;0.73;;;21.90;67.10;;;;;;5096749;28;20127;-72
2021/08/07 12:01:18;;;;;;;3.08;0.77;;;21.90;67.10;;;;;;5096763;28;20127;-72
2021/08/07 12:03:52;;;;;;;3.72;0.95;;;21.90;67.20;;;;;;5096312;28;20063;-72
2021/08/07 12:06:20;;;;;;;3.33;0.88;;;21.90;67.20;;;;;;5096240;28;20111;-72
2021/08/07 12:08:47;;;;;;;2.35;1.08;;;21.90;67.20;;;;;;5096212;28;20127;-72
2021/08/07 12:11:16;;;;;;;1.38;0.30;;;21.90;67.20;;;;;;5096039;28;20032;-72
2021/08/07 12:13:50;;;;;;;1.85;0.63;;;21.90;67.20;;;;;;5096535;28;20457;-72
2021/08/07 12:16:20;;;;;;;1.92;0.50;;;21.90;67.20;;;;;;5096514;28;20431;-72
2021/08/07 12:18:51;;;;;;;2.20;0.73;;;21.90;67.20;;;;;;5095632;28;20459;-72
2021/08/07 12:21:23;;;;;;;2.83;1.05;;;21.90;67.20;;;;;;5096042;28;20523;-72
2021/08/07 12:23:54;;;;;;;2.15;0.60;;;21.90;67.10;;;;;;5096137;28;20416;-72
2021/08/07 12:26:22;;;;;;;2.25;0.68;;;21.90;67.10;;;;;;5095748;28;20538;-72
2021/08/07 12:28:59;;;;;;;1.63;0.35;;;21.90;67.10;;;;;;5095852;28;20397;-72
2021/08/07 12:31:52;;;;;;;1.95;0.73;;;21.90;67.10;;;;;;5095732;28;20043;-72
2021/08/07 12:34:21;;;;;;;2.38;0.63;;;21.90;67.00;;;;;;5096313;28;20040;-72
2021/08/07 12:37:06;;;;;;;2.00;0.70;;;21.90;67.10;;;;;;5095592;28;20048;-73
2021/08/07 12:39:44;;;;;;;2.15;0.70;;;21.90;67.00;;;;;;5095248;28;20054;-73
2021/08/07 12:42:13;;;;;;;2.05;0.90;;;22.00;67.00;;;;;;5096015;28;20119;-72
2021/08/07 12:44:39;;;;;;;2.83;0.50;;;22.00;67.10;;;;;;5095571;28;20071;-72
2021/08/07 12:47:05;;;;;;;2.95;0.60;;;21.90;67.00;;;;;;5095570;28;20132;-72
2021/08/07 12:49:45;;;;;;;2.97;0.70;;;21.90;67.00;;;;;;5095689;28;20122;-72
2021/08/07 12:52:17;;;;;;;1.65;0.52;;;22.00;67.00;;;;;;5095405;28;20043;-72
2021/08/07 12:54:45;;;;;;;1.20;0.50;;;21.90;67.00;;;;;;5095999;28;20340;-72